Etusivu
METAR-TAF:

METAR-TAF

Lentoasemat :

Kööpenhamina, Tanska

Kööpenhaminan lentoasema

Leveyspiiri: 55-37N, Pituuspiiri: 012-39E, korkeus merenpinnasta: 5 m

Tämänhetkinen sää

Tämä raportti tehtiin 24 minuuttia sitten, kello 06.20 UTC
Tuuli 7 kn etelästä
Lämpötila 11°C
Kosteus 94%
Ilmanpaine 1025 hPa
Näkyvyys: 7000 m
selkeää

METAR: EKCH 200620Z 18007KT 7000 SKC 11/10 Q1025 NOSIG

Aika: 08:44 (06:44 UTC)

Sääennuste

Tämä raportti tehtiin 1 tunti ja 31 minuuttia sitten, kello 05.13 UTC
Ennuste voimassa 20. päivästä klo 06 UTC - 21. päivään klo 06 UTC
Tuuli 8 kn etelästä
Näkyvyys: 8000 m
Tulossa
20. päivästä klo 16 UTC - 20. päivään klo 19 UTC
Tuuli 10 kn lännestä/luoteesta

TAF: EKCH 200513Z 2006/2106 18008KT 8000 NSC BECMG 2016/2019 30010KT

Säähavainnot ja -ennusteet yli 4000 lentoasemalta (METAR- ja TAF-raportit).

Käytössä olevat sääasemat on merkitty karttaan keltaisilla ja punaisilla pisteillä.

Aseta hiiri pisteen päälle nähdäksesi sääaseman nimen.

Klikkaa sitten nähdäksesi säähavainnot ja -ennusteet.

Kartan vaihtaminen: klikkaa mustalla rastilla varustettuja vihreitä pisteitä, niin voit zoomata sisään; viivalla varustettua vihreää pistettä, niin voit zoomata ulos tai vihreitä nuolia, niin pääset viereisille kartoille.


METAR-TAF: